sensor_id;sensor_type;location;lat;lon;timestamp;temperature;humidity
51655;DHT22;37732;53.106;7.030;2023-06-22T00:00:57;18.60;99.90
51655;DHT22;37732;53.106;7.030;2023-06-22T00:03:24;18.60;99.90
51655;DHT22;37732;53.106;7.030;2023-06-22T00:05:51;18.60;99.90
51655;DHT22;37732;53.106;7.030;2023-06-22T00:08:17;18.60;99.90
51655;DHT22;37732;53.106;7.030;2023-06-22T00:10:44;18.50;99.90
51655;DHT22;37732;53.106;7.030;2023-06-22T00:13:11;18.40;99.90
51655;DHT22;37732;53.106;7.030;2023-06-22T00:15:38;18.50;99.90
51655;DHT22;37732;53.106;7.030;2023-06-22T00:18:08;18.40;99.90
51655;DHT22;37732;53.106;7.030;2023-06-22T00:20:34;18.40;99.90
51655;DHT22;37732;53.106;7.030;2023-06-22T00:23:03;18.30;99.90
51655;DHT22;37732;53.106;7.030;2023-06-22T00:25:37;18.30;99.90
51655;DHT22;37732;53.106;7.030;2023-06-22T00:28:05;18.30;99.90
51655;DHT22;37732;53.106;7.030;2023-06-22T00:30:32;18.30;99.90
51655;DHT22;37732;53.106;7.030;2023-06-22T00:32:58;18.20;99.90
51655;DHT22;37732;53.106;7.030;2023-06-22T00:35:25;18.20;99.90
51655;DHT22;37732;53.106;7.030;2023-06-22T00:37:55;18.20;99.90
51655;DHT22;37732;53.106;7.030;2023-06-22T00:40:30;18.20;99.90
51655;DHT22;37732;53.106;7.030;2023-06-22T00:42:56;18.10;99.90
51655;DHT22;37732;53.106;7.030;2023-06-22T00:45:23;18.10;99.90
51655;DHT22;37732;53.106;7.030;2023-06-22T00:47:53;17.80;99.90
51655;DHT22;37732;53.106;7.030;2023-06-22T00:50:22;18.00;99.90
51655;DHT22;37732;53.106;7.030;2023-06-22T00:52:51;18.00;99.90
51655;DHT22;37732;53.106;7.030;2023-06-22T00:55:19;18.00;99.90
51655;DHT22;37732;53.106;7.030;2023-06-22T00:57:46;17.90;99.90
51655;DHT22;37732;53.106;7.030;2023-06-22T01:03:01;17.90;99.90
51655;DHT22;37732;53.106;7.030;2023-06-22T01:05:27;17.80;99.90
51655;DHT22;37732;53.106;7.030;2023-06-22T01:11:34;17.80;99.90
51655;DHT22;37732;53.106;7.030;2023-06-22T01:14:14;17.70;99.90
51655;DHT22;37732;53.106;7.030;2023-06-22T01:16:41;17.70;99.90
51655;DHT22;37732;53.106;7.030;2023-06-22T01:21:49;17.70;99.90
51655;DHT22;37732;53.106;7.030;2023-06-22T01:24:29;17.70;99.90
51655;DHT22;37732;53.106;7.030;2023-06-22T01:29:36;17.70;99.90
51655;DHT22;37732;53.106;7.030;2023-06-22T01:32:05;17.70;99.90
51655;DHT22;37732;53.106;7.030;2023-06-22T01:34:32;17.60;99.90
51655;DHT22;37732;53.106;7.030;2023-06-22T01:36:59;17.60;99.90
51655;DHT22;37732;53.106;7.030;2023-06-22T01:39:26;17.50;99.90
51655;DHT22;37732;53.106;7.030;2023-06-22T01:41:53;17.50;99.90
51655;DHT22;37732;53.106;7.030;2023-06-22T01:44:20;17.50;99.90
51655;DHT22;37732;53.106;7.030;2023-06-22T01:46:48;17.50;99.90
51655;DHT22;37732;53.106;7.030;2023-06-22T01:49:15;17.40;99.90
51655;DHT22;37732;53.106;7.030;2023-06-22T01:51:41;17.40;99.90
51655;DHT22;37732;53.106;7.030;2023-06-22T01:54:07;17.40;99.90
51655;DHT22;37732;53.106;7.030;2023-06-22T01:56:33;17.40;99.90
51655;DHT22;37732;53.106;7.030;2023-06-22T02:02:02;17.40;99.90
51655;DHT22;37732;53.106;7.030;2023-06-22T02:04:57;17.40;99.90
51655;DHT22;37732;53.106;7.030;2023-06-22T02:07:29;17.40;99.90
51655;DHT22;37732;53.106;7.030;2023-06-22T02:09:59;17.40;99.90
51655;DHT22;37732;53.106;7.030;2023-06-22T02:12:26;17.40;99.90
51655;DHT22;37732;53.106;7.030;2023-06-22T02:14:54;17.40;99.90
51655;DHT22;37732;53.106;7.030;2023-06-22T02:17:20;17.40;99.90
51655;DHT22;37732;53.106;7.030;2023-06-22T02:19:46;17.30;99.90
51655;DHT22;37732;53.106;7.030;2023-06-22T02:22:11;17.30;99.90
51655;DHT22;37732;53.106;7.030;2023-06-22T02:24:40;17.30;99.90
51655;DHT22;37732;53.106;7.030;2023-06-22T02:27:06;17.30;99.90
51655;DHT22;37732;53.106;7.030;2023-06-22T02:29:32;17.30;99.90
51655;DHT22;37732;53.106;7.030;2023-06-22T02:31:58;17.30;99.90
51655;DHT22;37732;53.106;7.030;2023-06-22T02:34:24;17.30;99.90
51655;DHT22;37732;53.106;7.030;2023-06-22T02:36:50;17.30;99.90
51655;DHT22;37732;53.106;7.030;2023-06-22T02:39:21;17.20;99.90
51655;DHT22;37732;53.106;7.030;2023-06-22T02:41:49;17.20;99.90
51655;DHT22;37732;53.106;7.030;2023-06-22T02:44:15;17.20;99.90
51655;DHT22;37732;53.106;7.030;2023-06-22T02:46:41;17.20;99.90
51655;DHT22;37732;53.106;7.030;2023-06-22T02:49:07;17.10;99.90
51655;DHT22;37732;53.106;7.030;2023-06-22T02:51:33;17.10;99.90
51655;DHT22;37732;53.106;7.030;2023-06-22T02:54:02;17.10;99.90
51655;DHT22;37732;53.106;7.030;2023-06-22T02:56:28;17.00;99.90
51655;DHT22;37732;53.106;7.030;2023-06-22T02:58:55;17.00;99.90
51655;DHT22;37732;53.106;7.030;2023-06-22T03:01:30;17.00;99.90
51655;DHT22;37732;53.106;7.030;2023-06-22T03:04:06;17.10;99.90
51655;DHT22;37732;53.106;7.030;2023-06-22T03:06:33;17.10;99.90
51655;DHT22;37732;53.106;7.030;2023-06-22T03:09:03;17.00;99.90
51655;DHT22;37732;53.106;7.030;2023-06-22T03:11:31;16.90;99.90
51655;DHT22;37732;53.106;7.030;2023-06-22T03:13:57;16.90;99.90
51655;DHT22;37732;53.106;7.030;2023-06-22T03:16:23;16.90;99.90
51655;DHT22;37732;53.106;7.030;2023-06-22T03:18:49;16.80;99.90
51655;DHT22;37732;53.106;7.030;2023-06-22T03:21:14;16.80;99.90
51655;DHT22;37732;53.106;7.030;2023-06-22T03:23:41;16.80;99.90
51655;DHT22;37732;53.106;7.030;2023-06-22T03:26:09;16.80;99.90
51655;DHT22;37732;53.106;7.030;2023-06-22T03:28:35;16.70;99.90
51655;DHT22;37732;53.106;7.030;2023-06-22T03:31:01;16.70;99.90
51655;DHT22;37732;53.106;7.030;2023-06-22T03:33:27;16.70;99.90
51655;DHT22;37732;53.106;7.030;2023-06-22T03:35:52;16.60;99.90
51655;DHT22;37732;53.106;7.030;2023-06-22T03:38:19;16.60;99.90
51655;DHT22;37732;53.106;7.030;2023-06-22T03:40:45;16.60;99.90
51655;DHT22;37732;53.106;7.030;2023-06-22T03:43:11;16.60;99.90
51655;DHT22;37732;53.106;7.030;2023-06-22T03:45:37;16.60;99.90
51655;DHT22;37732;53.106;7.030;2023-06-22T03:48:02;16.60;99.90
51655;DHT22;37732;53.106;7.030;2023-06-22T03:50:28;16.60;99.90
51655;DHT22;37732;53.106;7.030;2023-06-22T03:52:55;16.60;99.90
51655;DHT22;37732;53.106;7.030;2023-06-22T03:55:21;16.60;99.90
51655;DHT22;37732;53.106;7.030;2023-06-22T03:57:46;16.60;99.90
51655;DHT22;37732;53.106;7.030;2023-06-22T04:00:13;16.60;99.90
51655;DHT22;37732;53.106;7.030;2023-06-22T04:02:39;16.60;99.90
51655;DHT22;37732;53.106;7.030;2023-06-22T04:05:05;16.70;99.90
51655;DHT22;37732;53.106;7.030;2023-06-22T04:07:30;16.70;99.90
51655;DHT22;37732;53.106;7.030;2023-06-22T04:09:56;16.70;99.90
51655;DHT22;37732;53.106;7.030;2023-06-22T04:12:22;16.70;99.90
51655;DHT22;37732;53.106;7.030;2023-06-22T04:14:47;16.70;99.90
51655;DHT22;37732;53.106;7.030;2023-06-22T04:17:13;16.70;99.90
51655;DHT22;37732;53.106;7.030;2023-06-22T04:19:40;16.80;99.90
51655;DHT22;37732;53.106;7.030;2023-06-22T04:22:06;16.80;99.90
51655;DHT22;37732;53.106;7.030;2023-06-22T04:24:36;16.80;99.90
51655;DHT22;37732;53.106;7.030;2023-06-22T04:27:03;16.80;99.90
51655;DHT22;37732;53.106;7.030;2023-06-22T04:29:31;16.80;99.90
51655;DHT22;37732;53.106;7.030;2023-06-22T04:31:58;16.90;99.90
51655;DHT22;37732;53.106;7.030;2023-06-22T04:34:28;16.90;99.90
51655;DHT22;37732;53.106;7.030;2023-06-22T04:36:55;16.90;99.90
51655;DHT22;37732;53.106;7.030;2023-06-22T04:39:21;16.90;99.90
51655;DHT22;37732;53.106;7.030;2023-06-22T04:41:47;17.00;99.90
51655;DHT22;37732;53.106;7.030;2023-06-22T04:44:17;17.10;99.90
51655;DHT22;37732;53.106;7.030;2023-06-22T04:46:53;17.10;99.90
51655;DHT22;37732;53.106;7.030;2023-06-22T04:49:21;17.10;99.90
51655;DHT22;37732;53.106;7.030;2023-06-22T04:51:47;17.10;99.90
51655;DHT22;37732;53.106;7.030;2023-06-22T04:54:13;17.10;99.90
51655;DHT22;37732;53.106;7.030;2023-06-22T04:56:39;17.10;99.90
51655;DHT22;37732;53.106;7.030;2023-06-22T04:59:06;17.10;99.90
51655;DHT22;37732;53.106;7.030;2023-06-22T05:01:32;17.20;99.90
51655;DHT22;37732;53.106;7.030;2023-06-22T05:03:58;17.20;99.90
51655;DHT22;37732;53.106;7.030;2023-06-22T05:06:26;17.20;99.90
51655;DHT22;37732;53.106;7.030;2023-06-22T05:08:56;17.30;99.90
51655;DHT22;37732;53.106;7.030;2023-06-22T05:11:24;17.30;99.90
51655;DHT22;37732;53.106;7.030;2023-06-22T05:13:50;17.40;99.90
51655;DHT22;37732;53.106;7.030;2023-06-22T05:16:16;17.40;99.90
51655;DHT22;37732;53.106;7.030;2023-06-22T05:18:41;17.50;99.90
51655;DHT22;37732;53.106;7.030;2023-06-22T05:21:08;17.60;99.90
51655;DHT22;37732;53.106;7.030;2023-06-22T05:23:34;17.60;99.90
51655;DHT22;37732;53.106;7.030;2023-06-22T05:26:00;17.70;99.90
51655;DHT22;37732;53.106;7.030;2023-06-22T05:28:25;17.70;99.90
51655;DHT22;37732;53.106;7.030;2023-06-22T05:30:51;17.80;99.90
51655;DHT22;37732;53.106;7.030;2023-06-22T05:33:17;17.90;99.90
51655;DHT22;37732;53.106;7.030;2023-06-22T05:35:43;18.00;99.90
51655;DHT22;37732;53.106;7.030;2023-06-22T05:38:08;18.20;99.90
51655;DHT22;37732;53.106;7.030;2023-06-22T05:40:34;18.30;99.90
51655;DHT22;37732;53.106;7.030;2023-06-22T05:43:00;18.50;99.90
51655;DHT22;37732;53.106;7.030;2023-06-22T05:45:27;18.60;99.90
51655;DHT22;37732;53.106;7.030;2023-06-22T05:47:52;18.70;99.90
51655;DHT22;37732;53.106;7.030;2023-06-22T05:50:19;18.90;99.90
51655;DHT22;37732;53.106;7.030;2023-06-22T05:52:44;18.90;99.90
51655;DHT22;37732;53.106;7.030;2023-06-22T05:55:10;18.90;99.90
51655;DHT22;37732;53.106;7.030;2023-06-22T05:57:36;19.00;99.90
51655;DHT22;37732;53.106;7.030;2023-06-22T06:00:02;19.10;99.90
51655;DHT22;37732;53.106;7.030;2023-06-22T06:02:29;19.20;99.90
51655;DHT22;37732;53.106;7.030;2023-06-22T06:04:54;19.30;99.90
51655;DHT22;37732;53.106;7.030;2023-06-22T06:07:20;19.50;99.90
51655;DHT22;37732;53.106;7.030;2023-06-22T06:09:46;19.60;99.90
51655;DHT22;37732;53.106;7.030;2023-06-22T06:12:13;19.70;99.90
51655;DHT22;37732;53.106;7.030;2023-06-22T06:14:39;19.90;99.90
51655;DHT22;37732;53.106;7.030;2023-06-22T06:17:04;20.10;99.90
51655;DHT22;37732;53.106;7.030;2023-06-22T06:19:30;20.20;99.90
51655;DHT22;37732;53.106;7.030;2023-06-22T06:21:56;20.30;99.90
51655;DHT22;37732;53.106;7.030;2023-06-22T06:24:21;20.50;99.90
51655;DHT22;37732;53.106;7.030;2023-06-22T06:26:47;20.50;99.90
51655;DHT22;37732;53.106;7.030;2023-06-22T06:29:13;20.60;99.90
51655;DHT22;37732;53.106;7.030;2023-06-22T06:31:41;20.60;99.90
51655;DHT22;37732;53.106;7.030;2023-06-22T06:34:07;20.70;99.90
51655;DHT22;37732;53.106;7.030;2023-06-22T06:36:33;20.90;99.90
51655;DHT22;37732;53.106;7.030;2023-06-22T06:38:58;21.00;99.90
51655;DHT22;37732;53.106;7.030;2023-06-22T06:41:24;21.20;99.90
51655;DHT22;37732;53.106;7.030;2023-06-22T06:43:50;21.40;99.90
51655;DHT22;37732;53.106;7.030;2023-06-22T06:46:16;21.60;99.90
51655;DHT22;37732;53.106;7.030;2023-06-22T06:48:41;21.80;99.90
51655;DHT22;37732;53.106;7.030;2023-06-22T06:51:07;21.90;99.90
51655;DHT22;37732;53.106;7.030;2023-06-22T06:58:31;22.30;99.90
51655;DHT22;37732;53.106;7.030;2023-06-22T07:00:57;22.40;99.90
51655;DHT22;37732;53.106;7.030;2023-06-22T07:03:22;22.60;99.90
51655;DHT22;37732;53.106;7.030;2023-06-22T07:05:48;22.70;99.90
51655;DHT22;37732;53.106;7.030;2023-06-22T07:08:14;22.80;99.90
51655;DHT22;37732;53.106;7.030;2023-06-22T07:10:39;23.00;99.90
51655;DHT22;37732;53.106;7.030;2023-06-22T07:13:05;23.10;99.90
51655;DHT22;37732;53.106;7.030;2023-06-22T07:15:31;23.20;99.90
51655;DHT22;37732;53.106;7.030;2023-06-22T07:17:56;23.30;99.90
51655;DHT22;37732;53.106;7.030;2023-06-22T07:20:22;23.40;99.90
51655;DHT22;37732;53.106;7.030;2023-06-22T07:22:47;23.60;99.90
51655;DHT22;37732;53.106;7.030;2023-06-22T07:25:13;23.60;99.90
51655;DHT22;37732;53.106;7.030;2023-06-22T07:27:46;23.70;99.90
51655;DHT22;37732;53.106;7.030;2023-06-22T07:30:13;23.80;99.90
51655;DHT22;37732;53.106;7.030;2023-06-22T07:32:40;23.90;99.90
51655;DHT22;37732;53.106;7.030;2023-06-22T07:35:06;24.10;99.90
51655;DHT22;37732;53.106;7.030;2023-06-22T07:37:32;24.20;99.90
51655;DHT22;37732;53.106;7.030;2023-06-22T07:39:59;24.40;99.90
51655;DHT22;37732;53.106;7.030;2023-06-22T07:42:25;24.50;99.90
51655;DHT22;37732;53.106;7.030;2023-06-22T07:44:51;24.60;99.90
51655;DHT22;37732;53.106;7.030;2023-06-22T07:47:17;24.80;99.90
51655;DHT22;37732;53.106;7.030;2023-06-22T07:49:45;25.00;99.90
51655;DHT22;37732;53.106;7.030;2023-06-22T07:52:11;25.10;99.90
51655;DHT22;37732;53.106;7.030;2023-06-22T07:54:36;25.20;99.90
51655;DHT22;37732;53.106;7.030;2023-06-22T07:57:02;25.30;99.90
51655;DHT22;37732;53.106;7.030;2023-06-22T07:59:28;25.40;99.90
51655;DHT22;37732;53.106;7.030;2023-06-22T08:01:55;25.50;99.90
51655;DHT22;37732;53.106;7.030;2023-06-22T08:04:21;25.60;99.90
51655;DHT22;37732;53.106;7.030;2023-06-22T08:06:46;25.80;99.90
51655;DHT22;37732;53.106;7.030;2023-06-22T08:09:12;25.80;99.90
51655;DHT22;37732;53.106;7.030;2023-06-22T08:11:38;25.90;99.90
51655;DHT22;37732;53.106;7.030;2023-06-22T08:14:03;26.00;99.90
51655;DHT22;37732;53.106;7.030;2023-06-22T08:16:29;26.10;99.90
51655;DHT22;37732;53.106;7.030;2023-06-22T08:18:55;26.20;99.90
51655;DHT22;37732;53.106;7.030;2023-06-22T08:21:21;26.40;99.90
51655;DHT22;37732;53.106;7.030;2023-06-22T08:23:47;26.60;99.90
51655;DHT22;37732;53.106;7.030;2023-06-22T08:26:14;26.70;99.90
51655;DHT22;37732;53.106;7.030;2023-06-22T08:28:40;26.70;99.90
51655;DHT22;37732;53.106;7.030;2023-06-22T08:31:06;26.80;99.90
51655;DHT22;37732;53.106;7.030;2023-06-22T08:33:32;26.80;99.90
51655;DHT22;37732;53.106;7.030;2023-06-22T08:35:58;26.90;99.90
51655;DHT22;37732;53.106;7.030;2023-06-22T08:38:24;27.00;99.90
51655;DHT22;37732;53.106;7.030;2023-06-22T08:40:50;27.10;99.90
51655;DHT22;37732;53.106;7.030;2023-06-22T08:43:16;27.20;99.90
51655;DHT22;37732;53.106;7.030;2023-06-22T08:45:41;27.20;99.90
51655;DHT22;37732;53.106;7.030;2023-06-22T08:48:07;27.30;99.90
51655;DHT22;37732;53.106;7.030;2023-06-22T08:50:32;27.40;99.90
51655;DHT22;37732;53.106;7.030;2023-06-22T08:52:58;27.50;99.90
51655;DHT22;37732;53.106;7.030;2023-06-22T08:55:24;27.70;99.90
51655;DHT22;37732;53.106;7.030;2023-06-22T08:57:49;27.80;99.90
51655;DHT22;37732;53.106;7.030;2023-06-22T09:00:17;27.80;99.40
51655;DHT22;37732;53.106;7.030;2023-06-22T09:02:45;27.70;99.00
51655;DHT22;37732;53.106;7.030;2023-06-22T09:05:11;27.80;98.90
51655;DHT22;37732;53.106;7.030;2023-06-22T09:07:37;27.80;98.60
51655;DHT22;37732;53.106;7.030;2023-06-22T09:10:03;27.80;98.50
51655;DHT22;37732;53.106;7.030;2023-06-22T09:12:32;27.70;97.90
51655;DHT22;37732;53.106;7.030;2023-06-22T09:14:59;27.80;98.00
51655;DHT22;37732;53.106;7.030;2023-06-22T09:17:28;27.80;98.20
51655;DHT22;37732;53.106;7.030;2023-06-22T09:19:54;27.90;97.30
51655;DHT22;37732;53.106;7.030;2023-06-22T09:22:20;27.90;97.10
51655;DHT22;37732;53.106;7.030;2023-06-22T09:24:46;28.00;97.40
51655;DHT22;37732;53.106;7.030;2023-06-22T09:27:12;28.10;97.50
51655;DHT22;37732;53.106;7.030;2023-06-22T09:29:37;28.20;96.80
51655;DHT22;37732;53.106;7.030;2023-06-22T09:32:03;28.10;96.30
51655;DHT22;37732;53.106;7.030;2023-06-22T09:34:29;28.20;96.60
51655;DHT22;37732;53.106;7.030;2023-06-22T09:36:56;28.40;96.80
51655;DHT22;37732;53.106;7.030;2023-06-22T09:39:23;28.40;95.60
51655;DHT22;37732;53.106;7.030;2023-06-22T09:41:48;28.50;95.90
51655;DHT22;37732;53.106;7.030;2023-06-22T09:44:14;28.50;95.30
51655;DHT22;37732;53.106;7.030;2023-06-22T09:46:40;28.60;94.80
51655;DHT22;37732;53.106;7.030;2023-06-22T09:49:06;28.60;95.10
51655;DHT22;37732;53.106;7.030;2023-06-22T09:51:32;28.60;95.50
51655;DHT22;37732;53.106;7.030;2023-06-22T09:53:57;28.60;95.10
51655;DHT22;37732;53.106;7.030;2023-06-22T09:56:23;28.50;94.90
51655;DHT22;37732;53.106;7.030;2023-06-22T09:58:49;28.60;95.20
51655;DHT22;37732;53.106;7.030;2023-06-22T10:01:18;28.60;94.80
51655;DHT22;37732;53.106;7.030;2023-06-22T10:03:44;28.80;94.90
51655;DHT22;37732;53.106;7.030;2023-06-22T10:06:09;28.90;94.30
51655;DHT22;37732;53.106;7.030;2023-06-22T10:08:35;28.90;94.60
51655;DHT22;37732;53.106;7.030;2023-06-22T10:11:02;28.90;93.90
51655;DHT22;37732;53.106;7.030;2023-06-22T10:13:28;28.90;94.20
51655;DHT22;37732;53.106;7.030;2023-06-22T10:15:54;29.00;93.90
51655;DHT22;37732;53.106;7.030;2023-06-22T10:18:20;29.10;93.60
51655;DHT22;37732;53.106;7.030;2023-06-22T10:20:48;29.10;93.00
51655;DHT22;37732;53.106;7.030;2023-06-22T10:23:15;29.30;93.00
51655;DHT22;37732;53.106;7.030;2023-06-22T10:25:41;29.20;92.80
51655;DHT22;37732;53.106;7.030;2023-06-22T10:28:07;29.30;93.30
51655;DHT22;37732;53.106;7.030;2023-06-22T10:30:32;29.20;92.90
51655;DHT22;37732;53.106;7.030;2023-06-22T10:32:58;29.30;93.10
51655;DHT22;37732;53.106;7.030;2023-06-22T10:35:24;29.30;92.90
51655;DHT22;37732;53.106;7.030;2023-06-22T10:37:49;29.30;92.30
51655;DHT22;37732;53.106;7.030;2023-06-22T10:40:16;29.50;91.90
51655;DHT22;37732;53.106;7.030;2023-06-22T10:42:42;29.60;91.70
51655;DHT22;37732;53.106;7.030;2023-06-22T10:45:08;29.70;91.40
51655;DHT22;37732;53.106;7.030;2023-06-22T10:47:35;29.70;91.10
51655;DHT22;37732;53.106;7.030;2023-06-22T10:50:01;29.70;91.00
51655;DHT22;37732;53.106;7.030;2023-06-22T10:52:27;29.70;91.00
51655;DHT22;37732;53.106;7.030;2023-06-22T10:54:53;29.80;91.00
51655;DHT22;37732;53.106;7.030;2023-06-22T10:57:18;30.00;90.80
51655;DHT22;37732;53.106;7.030;2023-06-22T10:59:44;30.10;88.90
51655;DHT22;37732;53.106;7.030;2023-06-22T11:02:10;30.00;90.10
51655;DHT22;37732;53.106;7.030;2023-06-22T11:04:36;30.10;90.00
51655;DHT22;37732;53.106;7.030;2023-06-22T11:07:01;30.20;89.90
51655;DHT22;37732;53.106;7.030;2023-06-22T11:09:27;30.20;89.90
51655;DHT22;37732;53.106;7.030;2023-06-22T11:11:53;30.10;90.00
51655;DHT22;37732;53.106;7.030;2023-06-22T11:14:19;30.00;90.10
51655;DHT22;37732;53.106;7.030;2023-06-22T11:16:45;30.00;90.00
51655;DHT22;37732;53.106;7.030;2023-06-22T11:19:12;30.20;89.20
51655;DHT22;37732;53.106;7.030;2023-06-22T11:21:38;30.20;89.40
51655;DHT22;37732;53.106;7.030;2023-06-22T11:24:04;30.20;89.00
51655;DHT22;37732;53.106;7.030;2023-06-22T11:26:30;30.10;90.10
51655;DHT22;37732;53.106;7.030;2023-06-22T11:28:57;30.10;90.30
51655;DHT22;37732;53.106;7.030;2023-06-22T11:31:23;30.00;89.40
51655;DHT22;37732;53.106;7.030;2023-06-22T11:33:49;30.10;88.60
51655;DHT22;37732;53.106;7.030;2023-06-22T11:36:15;30.20;88.60
51655;DHT22;37732;53.106;7.030;2023-06-22T11:38:41;30.30;87.50
51655;DHT22;37732;53.106;7.030;2023-06-22T11:41:09;30.30;86.80
51655;DHT22;37732;53.106;7.030;2023-06-22T11:43:35;30.30;86.50
51655;DHT22;37732;53.106;7.030;2023-06-22T11:46:03;30.30;85.60
51655;DHT22;37732;53.106;7.030;2023-06-22T11:48:29;30.30;85.30
51655;DHT22;37732;53.106;7.030;2023-06-22T11:50:55;30.30;85.00
51655;DHT22;37732;53.106;7.030;2023-06-22T11:53:24;30.30;86.50
51655;DHT22;37732;53.106;7.030;2023-06-22T11:55:50;30.30;86.00
51655;DHT22;37732;53.106;7.030;2023-06-22T11:58:16;30.20;85.70
51655;DHT22;37732;53.106;7.030;2023-06-22T12:00:42;30.20;86.30
51655;DHT22;37732;53.106;7.030;2023-06-22T12:03:08;30.20;86.50
51655;DHT22;37732;53.106;7.030;2023-06-22T12:05:34;30.10;85.30
51655;DHT22;37732;53.106;7.030;2023-06-22T12:08:00;29.90;85.30
51655;DHT22;37732;53.106;7.030;2023-06-22T12:10:26;29.80;85.70
51655;DHT22;37732;53.106;7.030;2023-06-22T12:12:55;29.70;86.40
51655;DHT22;37732;53.106;7.030;2023-06-22T12:15:22;29.70;85.80
51655;DHT22;37732;53.106;7.030;2023-06-22T12:17:48;29.80;87.40
51655;DHT22;37732;53.106;7.030;2023-06-22T12:20:14;29.80;86.40
51655;DHT22;37732;53.106;7.030;2023-06-22T12:22:41;29.80;85.30
51655;DHT22;37732;53.106;7.030;2023-06-22T12:25:08;29.80;84.70
51655;DHT22;37732;53.106;7.030;2023-06-22T12:27:37;29.70;84.80
51655;DHT22;37732;53.106;7.030;2023-06-22T12:30:04;29.60;85.40
51655;DHT22;37732;53.106;7.030;2023-06-22T12:32:30;29.50;85.60
51655;DHT22;37732;53.106;7.030;2023-06-22T12:34:56;29.50;85.50
51655;DHT22;37732;53.106;7.030;2023-06-22T12:37:23;29.50;86.10
51655;DHT22;37732;53.106;7.030;2023-06-22T12:39:48;29.40;87.90
51655;DHT22;37732;53.106;7.030;2023-06-22T12:42:15;29.40;87.60
51655;DHT22;37732;53.106;7.030;2023-06-22T12:44:41;29.50;88.00
51655;DHT22;37732;53.106;7.030;2023-06-22T12:47:07;29.50;87.60
51655;DHT22;37732;53.106;7.030;2023-06-22T12:49:36;29.50;86.70
51655;DHT22;37732;53.106;7.030;2023-06-22T12:52:03;29.40;84.90
51655;DHT22;37732;53.106;7.030;2023-06-22T12:54:29;29.40;85.70
51655;DHT22;37732;53.106;7.030;2023-06-22T12:56:55;29.30;86.60
51655;DHT22;37732;53.106;7.030;2023-06-22T12:59:21;29.30;87.30
51655;DHT22;37732;53.106;7.030;2023-06-22T13:01:47;29.20;86.20
51655;DHT22;37732;53.106;7.030;2023-06-22T13:04:13;29.00;86.50
51655;DHT22;37732;53.106;7.030;2023-06-22T13:06:46;28.80;85.70
51655;DHT22;37732;53.106;7.030;2023-06-22T13:09:15;28.80;87.40
51655;DHT22;37732;53.106;7.030;2023-06-22T13:11:42;28.70;88.40
51655;DHT22;37732;53.106;7.030;2023-06-22T13:14:08;28.70;88.70
51655;DHT22;37732;53.106;7.030;2023-06-22T13:16:33;28.60;88.40
51655;DHT22;37732;53.106;7.030;2023-06-22T13:18:59;28.50;87.70
51655;DHT22;37732;53.106;7.030;2023-06-22T13:21:25;28.50;88.30
51655;DHT22;37732;53.106;7.030;2023-06-22T13:23:51;28.40;89.30
51655;DHT22;37732;53.106;7.030;2023-06-22T13:26:16;28.30;90.00
51655;DHT22;37732;53.106;7.030;2023-06-22T13:28:42;28.30;90.00
51655;DHT22;37732;53.106;7.030;2023-06-22T13:31:08;28.20;90.60
51655;DHT22;37732;53.106;7.030;2023-06-22T13:33:33;28.20;90.70
51655;DHT22;37732;53.106;7.030;2023-06-22T13:35:59;28.10;91.20
51655;DHT22;37732;53.106;7.030;2023-06-22T13:38:25;28.00;91.00
51655;DHT22;37732;53.106;7.030;2023-06-22T13:40:51;28.00;91.60
51655;DHT22;37732;53.106;7.030;2023-06-22T13:43:17;28.00;91.90
51655;DHT22;37732;53.106;7.030;2023-06-22T13:45:43;28.00;91.90
51655;DHT22;37732;53.106;7.030;2023-06-22T13:48:09;27.90;92.00
51655;DHT22;37732;53.106;7.030;2023-06-22T13:50:34;27.90;92.60
51655;DHT22;37732;53.106;7.030;2023-06-22T13:53:00;27.80;92.10
51655;DHT22;37732;53.106;7.030;2023-06-22T13:55:26;27.60;92.40
51655;DHT22;37732;53.106;7.030;2023-06-22T13:57:52;27.60;93.10
51655;DHT22;37732;53.106;7.030;2023-06-22T14:00:18;27.50;93.60
51655;DHT22;37732;53.106;7.030;2023-06-22T14:02:44;27.40;93.80
51655;DHT22;37732;53.106;7.030;2023-06-22T14:05:10;27.30;93.80
51655;DHT22;37732;53.106;7.030;2023-06-22T14:07:36;27.00;93.70
51655;DHT22;37732;53.106;7.030;2023-06-22T14:10:03;26.80;93.90
51655;DHT22;37732;53.106;7.030;2023-06-22T14:12:29;26.60;93.80
51655;DHT22;37732;53.106;7.030;2023-06-22T14:14:55;26.40;94.10
51655;DHT22;37732;53.106;7.030;2023-06-22T14:17:21;26.20;94.30
51655;DHT22;37732;53.106;7.030;2023-06-22T14:19:51;26.10;94.60
51655;DHT22;37732;53.106;7.030;2023-06-22T14:22:21;26.00;95.00
51655;DHT22;37732;53.106;7.030;2023-06-22T14:24:47;25.80;95.50
51655;DHT22;37732;53.106;7.030;2023-06-22T14:27:13;25.70;95.30
51655;DHT22;37732;53.106;7.030;2023-06-22T14:29:39;25.60;95.60
51655;DHT22;37732;53.106;7.030;2023-06-22T14:32:05;25.60;96.10
51655;DHT22;37732;53.106;7.030;2023-06-22T14:34:32;25.50;96.30
51655;DHT22;37732;53.106;7.030;2023-06-22T14:36:58;25.40;96.50
51655;DHT22;37732;53.106;7.030;2023-06-22T14:39:24;25.30;96.70
51655;DHT22;37732;53.106;7.030;2023-06-22T14:41:50;25.10;96.90
51655;DHT22;37732;53.106;7.030;2023-06-22T14:44:16;25.00;97.10
51655;DHT22;37732;53.106;7.030;2023-06-22T14:46:42;24.80;97.60
51655;DHT22;37732;53.106;7.030;2023-06-22T14:49:08;24.70;97.70
51655;DHT22;37732;53.106;7.030;2023-06-22T14:51:34;24.60;97.80
51655;DHT22;37732;53.106;7.030;2023-06-22T14:54:00;24.50;98.90
51655;DHT22;37732;53.106;7.030;2023-06-22T14:56:26;24.40;99.60
51655;DHT22;37732;53.106;7.030;2023-06-22T14:58:51;24.20;99.90
51655;DHT22;37732;53.106;7.030;2023-06-22T15:01:17;24.10;99.90
51655;DHT22;37732;53.106;7.030;2023-06-22T15:03:43;24.00;99.90
51655;DHT22;37732;53.106;7.030;2023-06-22T15:06:09;24.00;99.90
51655;DHT22;37732;53.106;7.030;2023-06-22T15:08:37;23.80;99.90
51655;DHT22;37732;53.106;7.030;2023-06-22T15:11:04;23.80;99.90
51655;DHT22;37732;53.106;7.030;2023-06-22T15:13:30;23.80;99.90
51655;DHT22;37732;53.106;7.030;2023-06-22T15:15:59;23.70;99.90
51655;DHT22;37732;53.106;7.030;2023-06-22T15:18:25;23.60;99.90
51655;DHT22;37732;53.106;7.030;2023-06-22T15:20:51;23.60;99.90
51655;DHT22;37732;53.106;7.030;2023-06-22T15:23:17;23.50;99.90
51655;DHT22;37732;53.106;7.030;2023-06-22T15:25:43;23.40;99.90
51655;DHT22;37732;53.106;7.030;2023-06-22T15:28:10;23.40;99.90
51655;DHT22;37732;53.106;7.030;2023-06-22T15:30:35;23.30;99.90
51655;DHT22;37732;53.106;7.030;2023-06-22T15:33:01;23.20;99.90
51655;DHT22;37732;53.106;7.030;2023-06-22T15:35:27;23.10;99.90
51655;DHT22;37732;53.106;7.030;2023-06-22T15:37:53;23.00;99.90
51655;DHT22;37732;53.106;7.030;2023-06-22T15:40:18;22.80;99.90
51655;DHT22;37732;53.106;7.030;2023-06-22T15:42:45;22.70;99.90
51655;DHT22;37732;53.106;7.030;2023-06-22T15:45:13;22.60;99.90